sensor_id;sensor_type;location;lat;lon;timestamp;temperature;humidity
71754;DHT22;59593;51.716;7.016;2023-06-22T00:00:46;20.70;99.90
71754;DHT22;59593;51.716;7.016;2023-06-22T00:03:12;20.70;99.90
71754;DHT22;59593;51.716;7.016;2023-06-22T00:05:38;20.70;99.90
71754;DHT22;59593;51.716;7.016;2023-06-22T00:08:04;20.80;99.90
71754;DHT22;59593;51.716;7.016;2023-06-22T00:10:32;20.80;99.90
71754;DHT22;59593;51.716;7.016;2023-06-22T00:12:58;20.70;99.90
71754;DHT22;59593;51.716;7.016;2023-06-22T00:15:23;20.70;99.90
71754;DHT22;59593;51.716;7.016;2023-06-22T00:17:50;20.50;99.90
71754;DHT22;59593;51.716;7.016;2023-06-22T00:20:16;20.40;99.90
71754;DHT22;59593;51.716;7.016;2023-06-22T00:22:43;20.50;99.90
71754;DHT22;59593;51.716;7.016;2023-06-22T00:25:10;20.50;99.90
71754;DHT22;59593;51.716;7.016;2023-06-22T00:27:36;20.60;99.90
71754;DHT22;59593;51.716;7.016;2023-06-22T00:30:02;20.40;99.90
71754;DHT22;59593;51.716;7.016;2023-06-22T00:32:28;20.40;99.90
71754;DHT22;59593;51.716;7.016;2023-06-22T00:34:53;20.40;99.90
71754;DHT22;59593;51.716;7.016;2023-06-22T00:37:25;20.50;99.90
71754;DHT22;59593;51.716;7.016;2023-06-22T00:39:55;20.50;99.90
71754;DHT22;59593;51.716;7.016;2023-06-22T00:42:21;20.40;99.90
71754;DHT22;59593;51.716;7.016;2023-06-22T00:44:47;20.40;99.90
71754;DHT22;59593;51.716;7.016;2023-06-22T00:47:17;20.40;99.90
71754;DHT22;59593;51.716;7.016;2023-06-22T00:49:43;20.40;99.90
71754;DHT22;59593;51.716;7.016;2023-06-22T00:52:09;20.40;99.90
71754;DHT22;59593;51.716;7.016;2023-06-22T00:54:43;20.30;99.90
71754;DHT22;59593;51.716;7.016;2023-06-22T00:57:15;20.20;99.90
71754;DHT22;59593;51.716;7.016;2023-06-22T00:59:44;20.30;99.90
71754;DHT22;59593;51.716;7.016;2023-06-22T01:02:11;20.30;99.90
71754;DHT22;59593;51.716;7.016;2023-06-22T01:04:38;20.40;99.90
71754;DHT22;59593;51.716;7.016;2023-06-22T01:07:36;20.20;99.90
71754;DHT22;59593;51.716;7.016;2023-06-22T01:13:04;20.20;99.90
71754;DHT22;59593;51.716;7.016;2023-06-22T01:15:37;20.20;99.90
71754;DHT22;59593;51.716;7.016;2023-06-22T01:18:05;20.30;99.90
71754;DHT22;59593;51.716;7.016;2023-06-22T01:20:34;20.30;99.90
71754;DHT22;59593;51.716;7.016;2023-06-22T01:28:42;19.90;99.90
71754;DHT22;59593;51.716;7.016;2023-06-22T01:31:10;19.80;99.90
71754;DHT22;59593;51.716;7.016;2023-06-22T01:33:40;19.90;99.90
71754;DHT22;59593;51.716;7.016;2023-06-22T01:36:07;19.90;99.90
71754;DHT22;59593;51.716;7.016;2023-06-22T01:38:34;20.00;99.90
71754;DHT22;59593;51.716;7.016;2023-06-22T01:41:01;20.00;99.90
71754;DHT22;59593;51.716;7.016;2023-06-22T01:43:28;20.00;99.90
71754;DHT22;59593;51.716;7.016;2023-06-22T01:45:54;20.00;99.90
71754;DHT22;59593;51.716;7.016;2023-06-22T01:48:21;19.90;99.90
71754;DHT22;59593;51.716;7.016;2023-06-22T01:50:48;19.90;99.90
71754;DHT22;59593;51.716;7.016;2023-06-22T01:53:13;19.80;99.90
71754;DHT22;59593;51.716;7.016;2023-06-22T01:55:39;19.80;99.90
71754;DHT22;59593;51.716;7.016;2023-06-22T01:58:05;19.80;99.90
71754;DHT22;59593;51.716;7.016;2023-06-22T02:00:37;19.70;99.90
71754;DHT22;59593;51.716;7.016;2023-06-22T02:03:26;19.60;99.90
71754;DHT22;59593;51.716;7.016;2023-06-22T02:05:58;19.50;99.90
71754;DHT22;59593;51.716;7.016;2023-06-22T02:08:36;19.40;99.90
71754;DHT22;59593;51.716;7.016;2023-06-22T02:11:02;19.50;99.90
71754;DHT22;59593;51.716;7.016;2023-06-22T02:13:29;19.60;99.90
71754;DHT22;59593;51.716;7.016;2023-06-22T02:15:56;19.60;99.90
71754;DHT22;59593;51.716;7.016;2023-06-22T02:18:21;19.60;99.90
71754;DHT22;59593;51.716;7.016;2023-06-22T02:20:47;19.70;99.90
71754;DHT22;59593;51.716;7.016;2023-06-22T02:23:13;19.70;99.90
71754;DHT22;59593;51.716;7.016;2023-06-22T02:25:38;19.70;99.90
71754;DHT22;59593;51.716;7.016;2023-06-22T02:28:05;19.70;99.90
71754;DHT22;59593;51.716;7.016;2023-06-22T02:30:30;19.70;99.90
71754;DHT22;59593;51.716;7.016;2023-06-22T02:32:56;19.60;99.90
71754;DHT22;59593;51.716;7.016;2023-06-22T02:35:28;19.50;99.90
71754;DHT22;59593;51.716;7.016;2023-06-22T02:37:58;19.60;99.90
71754;DHT22;59593;51.716;7.016;2023-06-22T02:40:24;19.60;99.90
71754;DHT22;59593;51.716;7.016;2023-06-22T02:42:50;19.60;99.90
71754;DHT22;59593;51.716;7.016;2023-06-22T02:45:15;19.50;99.90
71754;DHT22;59593;51.716;7.016;2023-06-22T02:47:41;19.40;99.90
71754;DHT22;59593;51.716;7.016;2023-06-22T02:50:07;19.40;99.90
71754;DHT22;59593;51.716;7.016;2023-06-22T02:52:32;19.50;99.90
71754;DHT22;59593;51.716;7.016;2023-06-22T02:54:59;19.60;99.90
71754;DHT22;59593;51.716;7.016;2023-06-22T02:57:25;19.60;99.90
71754;DHT22;59593;51.716;7.016;2023-06-22T02:59:50;19.40;99.90
71754;DHT22;59593;51.716;7.016;2023-06-22T03:02:16;19.20;99.90
71754;DHT22;59593;51.716;7.016;2023-06-22T03:04:41;19.10;99.90
71754;DHT22;59593;51.716;7.016;2023-06-22T03:07:08;19.20;99.90
71754;DHT22;59593;51.716;7.016;2023-06-22T03:09:34;19.30;99.90
71754;DHT22;59593;51.716;7.016;2023-06-22T03:11:59;19.30;99.90
71754;DHT22;59593;51.716;7.016;2023-06-22T03:14:25;19.30;99.90
71754;DHT22;59593;51.716;7.016;2023-06-22T03:16:51;19.20;99.90
71754;DHT22;59593;51.716;7.016;2023-06-22T03:19:17;19.30;99.90
71754;DHT22;59593;51.716;7.016;2023-06-22T03:21:42;19.20;99.90
71754;DHT22;59593;51.716;7.016;2023-06-22T03:24:08;19.30;99.90
71754;DHT22;59593;51.716;7.016;2023-06-22T03:26:34;19.30;99.90
71754;DHT22;59593;51.716;7.016;2023-06-22T03:29:00;19.30;99.90
71754;DHT22;59593;51.716;7.016;2023-06-22T03:31:26;19.30;99.90
71754;DHT22;59593;51.716;7.016;2023-06-22T03:33:51;19.20;99.90
71754;DHT22;59593;51.716;7.016;2023-06-22T03:36:18;19.10;99.90
71754;DHT22;59593;51.716;7.016;2023-06-22T03:38:45;19.10;99.90
71754;DHT22;59593;51.716;7.016;2023-06-22T03:41:11;19.10;99.90
71754;DHT22;59593;51.716;7.016;2023-06-22T03:43:36;19.00;99.90
71754;DHT22;59593;51.716;7.016;2023-06-22T03:46:02;18.90;99.90
71754;DHT22;59593;51.716;7.016;2023-06-22T03:48:27;18.90;99.90
71754;DHT22;59593;51.716;7.016;2023-06-22T03:50:53;19.00;99.90
71754;DHT22;59593;51.716;7.016;2023-06-22T03:53:19;19.10;99.90
71754;DHT22;59593;51.716;7.016;2023-06-22T03:55:51;19.10;99.90
71754;DHT22;59593;51.716;7.016;2023-06-22T03:58:18;19.10;99.90
71754;DHT22;59593;51.716;7.016;2023-06-22T04:00:52;19.20;99.90
71754;DHT22;59593;51.716;7.016;2023-06-22T04:03:18;19.30;99.90
71754;DHT22;59593;51.716;7.016;2023-06-22T04:05:44;19.30;99.90
71754;DHT22;59593;51.716;7.016;2023-06-22T04:08:10;19.20;99.90
71754;DHT22;59593;51.716;7.016;2023-06-22T04:10:36;19.10;99.90
71754;DHT22;59593;51.716;7.016;2023-06-22T04:13:02;19.10;99.90
71754;DHT22;59593;51.716;7.016;2023-06-22T04:15:27;19.20;99.90
71754;DHT22;59593;51.716;7.016;2023-06-22T04:17:54;19.10;99.90
71754;DHT22;59593;51.716;7.016;2023-06-22T04:20:20;19.10;99.90
71754;DHT22;59593;51.716;7.016;2023-06-22T04:22:46;18.90;99.90
71754;DHT22;59593;51.716;7.016;2023-06-22T04:25:11;18.90;99.90
71754;DHT22;59593;51.716;7.016;2023-06-22T04:27:37;18.90;99.90
71754;DHT22;59593;51.716;7.016;2023-06-22T04:30:07;18.90;99.90
71754;DHT22;59593;51.716;7.016;2023-06-22T04:32:34;19.20;99.90
71754;DHT22;59593;51.716;7.016;2023-06-22T04:35:02;19.20;99.90
71754;DHT22;59593;51.716;7.016;2023-06-22T04:37:27;19.30;99.90
71754;DHT22;59593;51.716;7.016;2023-06-22T04:39:53;19.30;99.90
71754;DHT22;59593;51.716;7.016;2023-06-22T04:42:19;19.40;99.90
71754;DHT22;59593;51.716;7.016;2023-06-22T04:44:45;19.60;99.90
71754;DHT22;59593;51.716;7.016;2023-06-22T04:47:11;19.80;99.90
71754;DHT22;59593;51.716;7.016;2023-06-22T04:49:36;19.90;99.90
71754;DHT22;59593;51.716;7.016;2023-06-22T04:52:07;20.10;99.90
71754;DHT22;59593;51.716;7.016;2023-06-22T04:54:33;20.10;99.90
71754;DHT22;59593;51.716;7.016;2023-06-22T04:57:00;20.30;99.90
71754;DHT22;59593;51.716;7.016;2023-06-22T04:59:27;20.30;99.90
71754;DHT22;59593;51.716;7.016;2023-06-22T05:01:59;20.30;99.90
71754;DHT22;59593;51.716;7.016;2023-06-22T05:04:29;20.40;99.90
71754;DHT22;59593;51.716;7.016;2023-06-22T05:06:59;20.40;99.90
71754;DHT22;59593;51.716;7.016;2023-06-22T05:09:25;20.30;99.90
71754;DHT22;59593;51.716;7.016;2023-06-22T05:11:51;20.30;99.90
71754;DHT22;59593;51.716;7.016;2023-06-22T05:14:17;20.30;99.90
71754;DHT22;59593;51.716;7.016;2023-06-22T05:16:44;20.40;99.90
71754;DHT22;59593;51.716;7.016;2023-06-22T05:19:10;20.50;99.90
71754;DHT22;59593;51.716;7.016;2023-06-22T05:21:35;20.60;99.90
71754;DHT22;59593;51.716;7.016;2023-06-22T05:24:01;20.70;99.90
71754;DHT22;59593;51.716;7.016;2023-06-22T05:26:29;20.50;99.90
71754;DHT22;59593;51.716;7.016;2023-06-22T05:28:57;20.50;99.90
71754;DHT22;59593;51.716;7.016;2023-06-22T05:31:23;20.60;99.90
71754;DHT22;59593;51.716;7.016;2023-06-22T05:33:51;20.50;99.90
71754;DHT22;59593;51.716;7.016;2023-06-22T05:36:16;20.50;99.90
71754;DHT22;59593;51.716;7.016;2023-06-22T05:38:42;20.50;99.90
71754;DHT22;59593;51.716;7.016;2023-06-22T05:41:08;20.50;99.90
71754;DHT22;59593;51.716;7.016;2023-06-22T05:43:33;20.50;99.90
71754;DHT22;59593;51.716;7.016;2023-06-22T05:46:00;20.70;99.90
71754;DHT22;59593;51.716;7.016;2023-06-22T05:48:26;20.70;99.90
71754;DHT22;59593;51.716;7.016;2023-06-22T05:50:53;20.70;99.90
71754;DHT22;59593;51.716;7.016;2023-06-22T05:53:21;20.60;99.90
71754;DHT22;59593;51.716;7.016;2023-06-22T05:55:47;20.70;99.90
71754;DHT22;59593;51.716;7.016;2023-06-22T05:58:13;20.80;99.90
71754;DHT22;59593;51.716;7.016;2023-06-22T06:00:39;20.90;99.90
71754;DHT22;59593;51.716;7.016;2023-06-22T06:03:08;20.90;99.90
71754;DHT22;59593;51.716;7.016;2023-06-22T06:05:35;21.00;99.90
71754;DHT22;59593;51.716;7.016;2023-06-22T06:08:03;21.10;99.90
71754;DHT22;59593;51.716;7.016;2023-06-22T06:10:30;21.10;99.90
71754;DHT22;59593;51.716;7.016;2023-06-22T06:12:56;21.10;99.90
71754;DHT22;59593;51.716;7.016;2023-06-22T06:15:22;21.10;99.90
71754;DHT22;59593;51.716;7.016;2023-06-22T06:17:54;21.20;99.90
71754;DHT22;59593;51.716;7.016;2023-06-22T06:20:24;21.10;99.90
71754;DHT22;59593;51.716;7.016;2023-06-22T06:22:50;21.10;99.90
71754;DHT22;59593;51.716;7.016;2023-06-22T06:25:16;21.10;99.90
71754;DHT22;59593;51.716;7.016;2023-06-22T06:27:47;21.10;99.90
71754;DHT22;59593;51.716;7.016;2023-06-22T06:30:15;21.20;99.90
71754;DHT22;59593;51.716;7.016;2023-06-22T06:32:41;21.30;99.90
71754;DHT22;59593;51.716;7.016;2023-06-22T06:35:08;21.30;99.90
71754;DHT22;59593;51.716;7.016;2023-06-22T06:37:43;21.20;99.90
71754;DHT22;59593;51.716;7.016;2023-06-22T06:40:10;21.20;99.90
71754;DHT22;59593;51.716;7.016;2023-06-22T06:42:41;21.20;99.90
71754;DHT22;59593;51.716;7.016;2023-06-22T06:45:20;21.20;99.90
71754;DHT22;59593;51.716;7.016;2023-06-22T06:47:48;21.20;99.90
71754;DHT22;59593;51.716;7.016;2023-06-22T06:50:13;21.20;99.90
71754;DHT22;59593;51.716;7.016;2023-06-22T06:52:39;21.10;99.90
71754;DHT22;59593;51.716;7.016;2023-06-22T06:55:06;21.20;99.90
71754;DHT22;59593;51.716;7.016;2023-06-22T06:57:33;21.20;99.90
71754;DHT22;59593;51.716;7.016;2023-06-22T06:59:59;21.20;99.90
71754;DHT22;59593;51.716;7.016;2023-06-22T07:02:25;21.20;99.90
71754;DHT22;59593;51.716;7.016;2023-06-22T07:04:53;21.20;99.90
71754;DHT22;59593;51.716;7.016;2023-06-22T07:07:20;21.20;99.90
71754;DHT22;59593;51.716;7.016;2023-06-22T07:09:46;21.30;99.90
71754;DHT22;59593;51.716;7.016;2023-06-22T07:12:11;21.20;99.90
71754;DHT22;59593;51.716;7.016;2023-06-22T07:14:37;21.20;99.90
71754;DHT22;59593;51.716;7.016;2023-06-22T07:17:03;21.30;99.90
71754;DHT22;59593;51.716;7.016;2023-06-22T07:19:28;21.30;99.90
71754;DHT22;59593;51.716;7.016;2023-06-22T07:21:55;21.40;99.90
71754;DHT22;59593;51.716;7.016;2023-06-22T07:24:21;21.20;99.90
71754;DHT22;59593;51.716;7.016;2023-06-22T07:26:48;21.00;99.90
71754;DHT22;59593;51.716;7.016;2023-06-22T07:29:16;21.00;99.90
71754;DHT22;59593;51.716;7.016;2023-06-22T07:31:41;21.00;99.90
71754;DHT22;59593;51.716;7.016;2023-06-22T07:34:07;20.90;99.90
71754;DHT22;59593;51.716;7.016;2023-06-22T07:36:33;21.10;99.90
71754;DHT22;59593;51.716;7.016;2023-06-22T07:39:01;21.10;99.90
71754;DHT22;59593;51.716;7.016;2023-06-22T07:41:28;21.20;99.90
71754;DHT22;59593;51.716;7.016;2023-06-22T07:43:53;21.20;99.90
71754;DHT22;59593;51.716;7.016;2023-06-22T07:46:19;21.30;99.90
71754;DHT22;59593;51.716;7.016;2023-06-22T07:48:44;21.20;99.90
71754;DHT22;59593;51.716;7.016;2023-06-22T07:51:10;21.20;99.90
71754;DHT22;59593;51.716;7.016;2023-06-22T07:53:42;21.30;99.90
71754;DHT22;59593;51.716;7.016;2023-06-22T07:56:10;21.40;99.90
71754;DHT22;59593;51.716;7.016;2023-06-22T07:58:36;21.40;99.90
71754;DHT22;59593;51.716;7.016;2023-06-22T08:01:02;21.60;99.90
71754;DHT22;59593;51.716;7.016;2023-06-22T08:03:28;21.60;99.90
71754;DHT22;59593;51.716;7.016;2023-06-22T08:05:54;21.60;99.90
71754;DHT22;59593;51.716;7.016;2023-06-22T08:08:20;21.60;99.90
71754;DHT22;59593;51.716;7.016;2023-06-22T08:10:45;21.60;99.90
71754;DHT22;59593;51.716;7.016;2023-06-22T08:13:11;21.80;99.90
71754;DHT22;59593;51.716;7.016;2023-06-22T08:15:37;22.00;99.90
71754;DHT22;59593;51.716;7.016;2023-06-22T08:18:02;22.00;99.90
71754;DHT22;59593;51.716;7.016;2023-06-22T08:20:28;22.10;99.90
71754;DHT22;59593;51.716;7.016;2023-06-22T08:22:56;22.20;99.90
71754;DHT22;59593;51.716;7.016;2023-06-22T08:25:23;22.40;99.90
71754;DHT22;59593;51.716;7.016;2023-06-22T08:27:49;22.50;99.90
71754;DHT22;59593;51.716;7.016;2023-06-22T08:30:15;22.40;99.90
71754;DHT22;59593;51.716;7.016;2023-06-22T08:32:41;22.40;99.90
71754;DHT22;59593;51.716;7.016;2023-06-22T08:35:07;22.30;99.90
71754;DHT22;59593;51.716;7.016;2023-06-22T08:37:34;22.40;99.90
71754;DHT22;59593;51.716;7.016;2023-06-22T08:40:02;22.40;99.90
71754;DHT22;59593;51.716;7.016;2023-06-22T08:42:31;22.70;99.90
71754;DHT22;59593;51.716;7.016;2023-06-22T08:44:57;22.90;99.90
71754;DHT22;59593;51.716;7.016;2023-06-22T08:47:23;22.80;99.90
71754;DHT22;59593;51.716;7.016;2023-06-22T08:49:49;22.80;99.90
71754;DHT22;59593;51.716;7.016;2023-06-22T08:52:15;23.10;99.90
71754;DHT22;59593;51.716;7.016;2023-06-22T08:54:40;23.40;99.90
71754;DHT22;59593;51.716;7.016;2023-06-22T08:57:06;23.70;99.90
71754;DHT22;59593;51.716;7.016;2023-06-22T08:59:32;23.90;99.90
71754;DHT22;59593;51.716;7.016;2023-06-22T09:01:57;24.30;99.90
71754;DHT22;59593;51.716;7.016;2023-06-22T09:04:24;24.20;99.90
71754;DHT22;59593;51.716;7.016;2023-06-22T09:06:50;24.20;99.90
71754;DHT22;59593;51.716;7.016;2023-06-22T09:09:17;24.40;99.90
71754;DHT22;59593;51.716;7.016;2023-06-22T09:11:43;24.30;99.90
71754;DHT22;59593;51.716;7.016;2023-06-22T09:14:10;24.60;99.90
71754;DHT22;59593;51.716;7.016;2023-06-22T09:16:36;24.80;99.90
71754;DHT22;59593;51.716;7.016;2023-06-22T09:19:02;24.70;99.90
71754;DHT22;59593;51.716;7.016;2023-06-22T09:21:33;24.60;99.90
71754;DHT22;59593;51.716;7.016;2023-06-22T09:23:58;24.90;99.90
71754;DHT22;59593;51.716;7.016;2023-06-22T09:26:24;25.00;99.90
71754;DHT22;59593;51.716;7.016;2023-06-22T09:28:50;25.00;99.90
71754;DHT22;59593;51.716;7.016;2023-06-22T09:31:15;25.10;99.90
71754;DHT22;59593;51.716;7.016;2023-06-22T09:33:42;24.80;99.90
71754;DHT22;59593;51.716;7.016;2023-06-22T09:36:08;24.80;99.90
71754;DHT22;59593;51.716;7.016;2023-06-22T09:38:37;25.20;99.90
71754;DHT22;59593;51.716;7.016;2023-06-22T09:41:03;25.00;99.90
71754;DHT22;59593;51.716;7.016;2023-06-22T09:43:30;24.70;99.90
71754;DHT22;59593;51.716;7.016;2023-06-22T09:45:56;24.70;99.90
71754;DHT22;59593;51.716;7.016;2023-06-22T09:48:22;24.70;99.90
71754;DHT22;59593;51.716;7.016;2023-06-22T09:50:47;25.00;99.90
71754;DHT22;59593;51.716;7.016;2023-06-22T09:53:13;25.10;99.90
71754;DHT22;59593;51.716;7.016;2023-06-22T09:55:38;25.30;99.90
71754;DHT22;59593;51.716;7.016;2023-06-22T09:58:04;25.60;99.90
71754;DHT22;59593;51.716;7.016;2023-06-22T10:00:30;25.60;99.90
71754;DHT22;59593;51.716;7.016;2023-06-22T10:02:56;25.30;99.90
71754;DHT22;59593;51.716;7.016;2023-06-22T10:05:22;25.10;99.90
71754;DHT22;59593;51.716;7.016;2023-06-22T10:07:47;25.20;99.90
71754;DHT22;59593;51.716;7.016;2023-06-22T10:10:13;25.50;99.90
71754;DHT22;59593;51.716;7.016;2023-06-22T10:12:46;25.50;99.90
71754;DHT22;59593;51.716;7.016;2023-06-22T10:15:12;25.40;99.90
71754;DHT22;59593;51.716;7.016;2023-06-22T10:17:38;25.30;99.90
71754;DHT22;59593;51.716;7.016;2023-06-22T10:20:05;25.40;99.90
71754;DHT22;59593;51.716;7.016;2023-06-22T10:22:40;25.10;99.90
71754;DHT22;59593;51.716;7.016;2023-06-22T10:25:07;24.80;99.90
71754;DHT22;59593;51.716;7.016;2023-06-22T10:27:33;24.70;99.90
71754;DHT22;59593;51.716;7.016;2023-06-22T10:29:58;24.80;99.90
71754;DHT22;59593;51.716;7.016;2023-06-22T10:32:24;25.10;99.90
71754;DHT22;59593;51.716;7.016;2023-06-22T10:34:49;25.20;99.90
71754;DHT22;59593;51.716;7.016;2023-06-22T10:37:15;25.20;99.90
71754;DHT22;59593;51.716;7.016;2023-06-22T10:39:41;25.50;99.90
71754;DHT22;59593;51.716;7.016;2023-06-22T10:42:07;25.70;99.90
71754;DHT22;59593;51.716;7.016;2023-06-22T10:44:32;25.70;99.90
71754;DHT22;59593;51.716;7.016;2023-06-22T10:46:58;26.30;99.90
71754;DHT22;59593;51.716;7.016;2023-06-22T10:49:23;26.70;99.90
71754;DHT22;59593;51.716;7.016;2023-06-22T10:51:52;27.00;99.90
71754;DHT22;59593;51.716;7.016;2023-06-22T10:54:18;27.00;99.90
71754;DHT22;59593;51.716;7.016;2023-06-22T10:56:44;26.90;99.90
71754;DHT22;59593;51.716;7.016;2023-06-22T10:59:10;27.30;99.90
71754;DHT22;59593;51.716;7.016;2023-06-22T11:01:35;26.50;99.90
71754;DHT22;59593;51.716;7.016;2023-06-22T11:04:02;26.30;99.90
71754;DHT22;59593;51.716;7.016;2023-06-22T11:06:28;26.10;99.90
71754;DHT22;59593;51.716;7.016;2023-06-22T11:08:53;26.20;99.90
71754;DHT22;59593;51.716;7.016;2023-06-22T11:11:19;26.30;99.90
71754;DHT22;59593;51.716;7.016;2023-06-22T11:13:44;26.50;99.90
71754;DHT22;59593;51.716;7.016;2023-06-22T11:16:10;26.40;99.90
71754;DHT22;59593;51.716;7.016;2023-06-22T11:18:36;26.80;99.90
71754;DHT22;59593;51.716;7.016;2023-06-22T11:21:02;26.80;99.90
71754;DHT22;59593;51.716;7.016;2023-06-22T11:23:27;26.70;99.90
71754;DHT22;59593;51.716;7.016;2023-06-22T11:25:54;26.80;99.90
71754;DHT22;59593;51.716;7.016;2023-06-22T11:28:20;26.50;99.90
71754;DHT22;59593;51.716;7.016;2023-06-22T11:30:46;26.30;99.90
71754;DHT22;59593;51.716;7.016;2023-06-22T11:33:11;26.00;99.90
71754;DHT22;59593;51.716;7.016;2023-06-22T11:35:37;26.00;99.90
71754;DHT22;59593;51.716;7.016;2023-06-22T11:38:03;25.80;99.90
71754;DHT22;59593;51.716;7.016;2023-06-22T11:40:29;25.60;99.90
71754;DHT22;59593;51.716;7.016;2023-06-22T11:42:55;25.40;99.90
71754;DHT22;59593;51.716;7.016;2023-06-22T11:45:20;25.40;99.90
71754;DHT22;59593;51.716;7.016;2023-06-22T11:47:47;25.20;99.90
71754;DHT22;59593;51.716;7.016;2023-06-22T11:50:12;25.20;99.90
71754;DHT22;59593;51.716;7.016;2023-06-22T11:52:38;25.10;99.90
71754;DHT22;59593;51.716;7.016;2023-06-22T11:55:05;25.10;99.90
71754;DHT22;59593;51.716;7.016;2023-06-22T11:57:39;25.00;99.90
71754;DHT22;59593;51.716;7.016;2023-06-22T12:00:17;25.00;99.90
71754;DHT22;59593;51.716;7.016;2023-06-22T12:02:44;25.00;99.90
71754;DHT22;59593;51.716;7.016;2023-06-22T12:05:10;24.90;99.90
71754;DHT22;59593;51.716;7.016;2023-06-22T12:07:36;24.70;99.90
71754;DHT22;59593;51.716;7.016;2023-06-22T12:10:03;24.60;99.90
71754;DHT22;59593;51.716;7.016;2023-06-22T12:12:28;24.50;99.90
71754;DHT22;59593;51.716;7.016;2023-06-22T12:14:54;24.20;99.90
71754;DHT22;59593;51.716;7.016;2023-06-22T12:17:20;24.20;99.90
71754;DHT22;59593;51.716;7.016;2023-06-22T12:19:45;24.10;99.90
71754;DHT22;59593;51.716;7.016;2023-06-22T12:22:11;23.80;99.90
71754;DHT22;59593;51.716;7.016;2023-06-22T12:24:36;23.60;99.90
71754;DHT22;59593;51.716;7.016;2023-06-22T12:27:02;23.40;99.90
71754;DHT22;59593;51.716;7.016;2023-06-22T12:29:28;23.20;99.90
71754;DHT22;59593;51.716;7.016;2023-06-22T12:31:54;23.10;99.90
71754;DHT22;59593;51.716;7.016;2023-06-22T12:34:20;23.00;99.90
71754;DHT22;59593;51.716;7.016;2023-06-22T12:36:48;23.10;99.90
71754;DHT22;59593;51.716;7.016;2023-06-22T12:39:15;22.90;99.90
71754;DHT22;59593;51.716;7.016;2023-06-22T12:41:40;22.80;99.90
71754;DHT22;59593;51.716;7.016;2023-06-22T12:44:06;22.80;99.90
71754;DHT22;59593;51.716;7.016;2023-06-22T12:46:31;22.60;99.90
71754;DHT22;59593;51.716;7.016;2023-06-22T12:49:03;22.60;99.90
71754;DHT22;59593;51.716;7.016;2023-06-22T12:51:29;22.70;99.90
71754;DHT22;59593;51.716;7.016;2023-06-22T12:53:55;22.60;99.90
71754;DHT22;59593;51.716;7.016;2023-06-22T12:56:21;22.60;99.90
71754;DHT22;59593;51.716;7.016;2023-06-22T12:58:46;22.70;99.90
71754;DHT22;59593;51.716;7.016;2023-06-22T13:01:12;23.10;99.90
71754;DHT22;59593;51.716;7.016;2023-06-22T13:03:37;23.50;99.90
71754;DHT22;59593;51.716;7.016;2023-06-22T13:06:03;23.40;99.90
71754;DHT22;59593;51.716;7.016;2023-06-22T13:08:29;23.10;99.90
71754;DHT22;59593;51.716;7.016;2023-06-22T13:10:55;22.80;99.90
71754;DHT22;59593;51.716;7.016;2023-06-22T13:13:25;22.80;99.90
71754;DHT22;59593;51.716;7.016;2023-06-22T13:15:50;22.80;99.90
71754;DHT22;59593;51.716;7.016;2023-06-22T13:18:18;23.20;99.90
71754;DHT22;59593;51.716;7.016;2023-06-22T13:20:43;23.00;99.90
71754;DHT22;59593;51.716;7.016;2023-06-22T13:23:11;22.90;99.90
71754;DHT22;59593;51.716;7.016;2023-06-22T13:25:37;22.80;99.90
71754;DHT22;59593;51.716;7.016;2023-06-22T13:28:02;22.80;99.90
71754;DHT22;59593;51.716;7.016;2023-06-22T13:30:28;22.60;99.90
71754;DHT22;59593;51.716;7.016;2023-06-22T13:32:55;22.90;99.90
71754;DHT22;59593;51.716;7.016;2023-06-22T13:35:20;23.00;99.90
71754;DHT22;59593;51.716;7.016;2023-06-22T13:37:46;23.00;99.90
71754;DHT22;59593;51.716;7.016;2023-06-22T13:40:12;23.10;99.90
71754;DHT22;59593;51.716;7.016;2023-06-22T13:42:37;23.40;99.90
71754;DHT22;59593;51.716;7.016;2023-06-22T13:45:04;23.10;99.90
71754;DHT22;59593;51.716;7.016;2023-06-22T13:47:30;22.90;99.90
71754;DHT22;59593;51.716;7.016;2023-06-22T13:49:56;22.70;99.90
71754;DHT22;59593;51.716;7.016;2023-06-22T13:52:23;22.80;99.90
71754;DHT22;59593;51.716;7.016;2023-06-22T13:54:48;22.90;99.90
71754;DHT22;59593;51.716;7.016;2023-06-22T13:57:17;22.90;99.90
71754;DHT22;59593;51.716;7.016;2023-06-22T13:59:43;23.10;99.90
71754;DHT22;59593;51.716;7.016;2023-06-22T14:02:08;23.20;99.90
71754;DHT22;59593;51.716;7.016;2023-06-22T14:04:34;22.90;99.90
71754;DHT22;59593;51.716;7.016;2023-06-22T14:07:02;22.90;99.90
71754;DHT22;59593;51.716;7.016;2023-06-22T14:09:34;22.90;99.90
71754;DHT22;59593;51.716;7.016;2023-06-22T14:12:10;23.00;99.90
71754;DHT22;59593;51.716;7.016;2023-06-22T14:14:36;23.20;99.90
71754;DHT22;59593;51.716;7.016;2023-06-22T14:17:01;23.30;99.90
71754;DHT22;59593;51.716;7.016;2023-06-22T14:19:27;23.10;99.90
71754;DHT22;59593;51.716;7.016;2023-06-22T14:21:52;23.10;99.90
71754;DHT22;59593;51.716;7.016;2023-06-22T14:24:18;23.10;99.90
